Time;durP1;ratioP1;P1;durP2;ratioP2;P2;SDS_P1;SDS_P2;PMS_P1;PMS_P2;Temp;Humidity;BMP_temperature;BMP_pressure;BME280_temperature;BME280_humidity;BME280_pressure;Samples;Min_cycle;Max_cycle;Signal;HPM_P1;HPM_P2
2020/12/06 00:01:51;;;;;;;370.60;348.10;;;;;;;;;;5096716;28;20214;-71
2020/12/06 00:04:20;;;;;;;368.23;346.10;;;;;;;;;;5092889;28;20218;-72
2020/12/06 00:06:51;;;;;;;454.17;425.60;;;;;;;;;;5095728;28;20194;-72
2020/12/06 00:09:18;;;;;;;280.60;263.97;;;;;;;;;;5108664;27;20696;-71
2020/12/06 00:11:45;;;;;;;376.30;353.83;;;;;;;;;;5101836;27;20276;-73
2020/12/06 00:14:11;;;;;;;524.03;487.33;;;;;;;;;;5100005;28;20454;-74
2020/12/06 00:16:38;;;;;;;316.53;297.43;;;;;;;;;;5099304;28;20189;-68
2020/12/06 00:19:05;;;;;;;481.67;447.30;;;;;;;;;;5099428;28;20212;-69
2020/12/06 00:21:31;;;;;;;626.80;583.33;;;;;;;;;;5080795;28;20174;-67
2020/12/06 00:23:59;;;;;;;444.17;415.73;;;;;;;;;;5097941;27;20184;-68
2020/12/06 00:26:26;;;;;;;348.00;329.33;;;;;;;;;;5096480;28;20197;-68
2020/12/06 00:28:54;;;;;;;500.23;463.37;;;;;;;;;;5097191;28;20253;-70
2020/12/06 00:31:21;;;;;;;526.60;490.63;;;;;;;;;;5101896;27;20189;-68
2020/12/06 00:33:48;;;;;;;452.83;421.60;;;;;;;;;;5103787;27;20186;-68
2020/12/06 00:36:15;;;;;;;401.97;376.87;;;;;;;;;;5101010;28;20181;-68
2020/12/06 00:38:42;;;;;;;420.97;395.47;;;;;;;;;;5098640;28;20297;-68
2020/12/06 00:41:12;;;;;;;477.63;449.63;;;;;;;;;;5098975;27;20569;-69
2020/12/06 00:43:39;;;;;;;462.33;434.10;;;;;;;;;;5095268;28;20689;-68
2020/12/06 00:46:05;;;;;;;488.77;456.80;;;;;;;;;;5095494;28;20277;-68
2020/12/06 00:48:32;;;;;;;544.33;508.10;;;;;;;;;;5093925;28;20409;-68
2020/12/06 00:50:59;;;;;;;483.30;455.87;;;;;;;;;;5101915;27;20261;-67
2020/12/06 00:53:25;;;;;;;543.20;508.87;;;;;;;;;;5096500;28;20178;-68
2020/12/06 00:55:52;;;;;;;496.70;465.47;;;;;;;;;;5100987;27;20296;-69
2020/12/06 00:58:18;;;;;;;456.27;425.37;;;;;;;;;;5096135;27;20182;-70
2020/12/06 01:00:45;;;;;;;526.63;493.13;;;;;;;;;;5081573;28;20181;-69
2020/12/06 01:03:12;;;;;;;554.07;519.83;;;;;;;;;;5098808;28;20189;-69
2020/12/06 01:05:39;;;;;;;435.90;409.80;;;;;;;;;;5098212;28;20641;-69
2020/12/06 01:08:07;;;;;;;574.33;536.17;;;;;;;;;;5078916;28;20185;-70
2020/12/06 01:10:34;;;;;;;593.57;555.47;;;;;;;;;;5097755;28;20197;-70
2020/12/06 01:13:01;;;;;;;510.60;480.10;;;;;;;;;;5091590;28;20200;-68
2020/12/06 01:15:29;;;;;;;747.17;691.20;;;;;;;;;;5090845;28;20217;-68
2020/12/06 01:17:56;;;;;;;524.40;495.50;;;;;;;;;;5073813;28;20186;-69
2020/12/06 01:20:22;;;;;;;535.00;505.67;;;;;;;;;;5091597;28;20209;-68
2020/12/06 01:22:49;;;;;;;632.27;593.23;;;;;;;;;;5095502;28;20189;-68
2020/12/06 01:25:15;;;;;;;497.70;470.20;;;;;;;;;;5100617;27;20190;-68
2020/12/06 01:27:42;;;;;;;554.63;521.50;;;;;;;;;;5097329;28;20331;-69
2020/12/06 01:30:09;;;;;;;693.10;643.93;;;;;;;;;;5100152;27;20193;-69
2020/12/06 01:32:35;;;;;;;665.37;621.73;;;;;;;;;;5097548;28;20735;-68
2020/12/06 01:35:02;;;;;;;612.37;575.03;;;;;;;;;;5093677;28;20190;-69
2020/12/06 01:37:29;;;;;;;530.40;500.60;;;;;;;;;;5097972;27;20185;-68
2020/12/06 01:39:56;;;;;;;625.03;587.77;;;;;;;;;;5097647;28;20292;-68
2020/12/06 01:42:24;;;;;;;677.33;630.07;;;;;;;;;;5089324;27;20192;-68
2020/12/06 01:45:00;;;;;;;612.37;572.27;;;;;;;;;;5077867;28;20178;-69
2020/12/06 01:47:30;;;;;;;584.90;550.87;;;;;;;;;;5086839;28;20870;-68
2020/12/06 01:49:57;;;;;;;477.03;452.60;;;;;;;;;;5098020;28;20919;-68
2020/12/06 01:52:26;;;;;;;688.70;639.90;;;;;;;;;;5097607;28;20866;-68
2020/12/06 01:54:54;;;;;;;577.50;542.10;;;;;;;;;;5097779;28;20189;-69
2020/12/06 01:57:21;;;;;;;451.63;424.27;;;;;;;;;;5097674;28;20193;-69
2020/12/06 01:59:47;;;;;;;598.60;560.53;;;;;;;;;;5101239;28;20240;-67
2020/12/06 02:02:15;;;;;;;426.60;403.93;;;;;;;;;;5086612;28;20185;-68
2020/12/06 02:04:45;;;;;;;494.30;465.93;;;;;;;;;;5096382;28;20192;-69
2020/12/06 02:07:12;;;;;;;508.90;478.00;;;;;;;;;;5098145;28;20250;-68
2020/12/06 02:09:38;;;;;;;516.17;486.70;;;;;;;;;;5079218;28;20287;-69
2020/12/06 02:12:08;;;;;;;589.47;554.33;;;;;;;;;;5082888;28;20247;-68
2020/12/06 02:14:36;;;;;;;576.47;540.20;;;;;;;;;;5096433;28;20266;-70
2020/12/06 02:17:03;;;;;;;657.03;612.07;;;;;;;;;;5096136;28;20194;-71
2020/12/06 02:19:29;;;;;;;596.80;558.87;;;;;;;;;;5099005;28;20209;-70
2020/12/06 02:21:56;;;;;;;657.50;613.10;;;;;;;;;;5105389;28;20185;-68
2020/12/06 02:24:23;;;;;;;554.93;521.33;;;;;;;;;;5105120;28;20269;-69
2020/12/06 02:26:50;;;;;;;715.93;665.03;;;;;;;;;;5103019;28;20794;-69
2020/12/06 02:29:19;;;;;;;605.40;569.50;;;;;;;;;;5093433;28;20207;-69
2020/12/06 02:31:45;;;;;;;619.33;580.57;;;;;;;;;;5096072;28;20189;-69
2020/12/06 02:34:13;;;;;;;523.13;492.10;;;;;;;;;;5104366;28;20692;-67
2020/12/06 02:36:40;;;;;;;511.27;479.70;;;;;;;;;;5102740;28;20200;-67
2020/12/06 02:39:10;;;;;;;569.50;530.73;;;;;;;;;;5097907;28;20271;-67
2020/12/06 02:41:41;;;;;;;591.80;552.10;;;;;;;;;;5100637;28;20176;-67
2020/12/06 02:44:08;;;;;;;537.90;508.23;;;;;;;;;;5098223;28;20189;-67
2020/12/06 02:46:35;;;;;;;660.13;613.70;;;;;;;;;;5092746;28;20278;-67
2020/12/06 02:49:02;;;;;;;585.63;548.83;;;;;;;;;;5096092;28;20625;-67
2020/12/06 02:51:29;;;;;;;590.93;556.47;;;;;;;;;;5094457;28;20185;-67
2020/12/06 02:53:57;;;;;;;603.53;567.13;;;;;;;;;;5092217;28;20190;-67
2020/12/06 02:56:25;;;;;;;591.93;554.83;;;;;;;;;;5096677;28;20470;-69
2020/12/06 02:58:52;;;;;;;667.47;620.77;;;;;;;;;;5096295;28;20242;-66
2020/12/06 03:01:18;;;;;;;721.53;669.10;;;;;;;;;;5098481;28;20609;-66
2020/12/06 03:03:45;;;;;;;652.93;606.33;;;;;;;;;;5097650;28;20181;-66
2020/12/06 03:06:12;;;;;;;613.73;573.80;;;;;;;;;;5097903;28;20206;-66
2020/12/06 03:08:39;;;;;;;670.27;621.40;;;;;;;;;;5100641;28;20691;-68
2020/12/06 15:37:31;;;;;;;908.57;831.17;;;;;;;;;;5076348;28;20577;-69
2020/12/06 15:39:58;;;;;;;941.40;856.23;;;;;;;;;;5076183;28;20175;-68
2020/12/06 15:42:24;;;;;;;916.80;841.30;;;;;;;;;;5075890;28;20244;-69
2020/12/06 15:44:51;;;;;;;914.17;839.83;;;;;;;;;;5076936;28;20178;-69
2020/12/06 15:47:18;;;;;;;904.27;828.80;;;;;;;;;;5076185;28;20585;-69
2020/12/06 15:49:44;;;;;;;794.60;739.37;;;;;;;;;;5076824;28;20695;-70
2020/12/06 15:52:11;;;;;;;620.93;581.77;;;;;;;;;;5076314;28;20505;-70
2020/12/06 15:54:37;;;;;;;696.83;645.27;;;;;;;;;;5075194;28;20186;-69
2020/12/06 15:57:04;;;;;;;703.07;652.70;;;;;;;;;;5055008;28;20206;-69
2020/12/06 15:59:31;;;;;;;596.07;557.50;;;;;;;;;;5058360;28;20174;-69
2020/12/06 16:01:57;;;;;;;651.77;607.73;;;;;;;;;;5055816;28;20561;-67
2020/12/06 16:04:24;;;;;;;727.30;676.37;;;;;;;;;;5056423;28;20179;-70
2020/12/06 16:06:53;;;;;;;701.97;652.23;;;;;;;;;;5058767;28;20279;-69
2020/12/06 16:09:20;;;;;;;633.40;594.40;;;;;;;;;;5076633;28;20350;-70
2020/12/06 16:11:47;;;;;;;723.97;674.33;;;;;;;;;;5075676;28;20175;-70
2020/12/06 16:14:13;;;;;;;669.27;623.93;;;;;;;;;;5076282;28;20456;-67
2020/12/06 16:16:43;;;;;;;665.17;618.93;;;;;;;;;;5075442;28;20218;-67
2020/12/06 16:19:09;;;;;;;598.47;559.03;;;;;;;;;;5076058;28;20678;-69
2020/12/06 16:21:36;;;;;;;655.97;610.07;;;;;;;;;;5076183;28;20174;-69
2020/12/06 16:24:03;;;;;;;575.47;541.03;;;;;;;;;;5076332;28;20182;-69
2020/12/06 16:26:30;;;;;;;709.07;661.13;;;;;;;;;;5058215;28;20243;-69
2020/12/06 16:28:57;;;;;;;636.83;596.83;;;;;;;;;;5058278;28;20258;-69
2020/12/06 16:31:34;;;;;;;684.17;638.50;;;;;;;;;;5055496;28;20650;-69
2020/12/06 16:34:01;;;;;;;690.50;646.30;;;;;;;;;;5055400;28;20743;-69
2020/12/06 16:36:29;;;;;;;748.97;698.77;;;;;;;;;;5057734;28;20230;-69
2020/12/06 16:38:56;;;;;;;750.97;699.73;;;;;;;;;;5054538;28;20606;-69
2020/12/06 16:41:22;;;;;;;893.33;823.60;;;;;;;;;;5054708;28;20534;-69
2020/12/06 16:43:49;;;;;;;1008.63;920.40;;;;;;;;;;5055072;28;20183;-69
2020/12/06 16:46:16;;;;;;;977.60;892.50;;;;;;;;;;5054743;28;20506;-69
2020/12/06 16:48:43;;;;;;;1059.53;956.43;;;;;;;;;;5041999;28;20601;-69
2020/12/06 16:51:10;;;;;;;1021.30;929.30;;;;;;;;;;5042302;28;20678;-69
2020/12/06 16:53:36;;;;;;;984.23;898.07;;;;;;;;;;5042323;28;20183;-69
2020/12/06 16:56:03;;;;;;;1004.83;909.17;;;;;;;;;;5041374;28;20226;-69
2020/12/06 16:58:29;;;;;;;1050.77;945.53;;;;;;;;;;5042770;28;20861;-68
2020/12/06 17:00:56;;;;;;;937.57;859.27;;;;;;;;;;5059311;28;20175;-69
2020/12/06 17:03:23;;;;;;;988.83;897.00;;;;;;;;;;5058026;28;20194;-69
2020/12/06 17:05:49;;;;;;;1108.80;980.73;;;;;;;;;;5061661;28;20275;-69
2020/12/06 17:08:16;;;;;;;996.73;888.53;;;;;;;;;;5061665;28;20174;-68
2020/12/06 17:10:43;;;;;;;1086.63;959.13;;;;;;;;;;5061621;28;20201;-69
2020/12/06 17:13:09;;;;;;;981.33;879.70;;;;;;;;;;5062360;28;20265;-69
2020/12/06 17:15:36;;;;;;;932.03;847.93;;;;;;;;;;5059306;28;20214;-69
2020/12/06 17:18:02;;;;;;;1136.20;930.63;;;;;;;;;;5039955;28;20182;-68
2020/12/06 17:20:29;;;;;;;869.07;789.20;;;;;;;;;;5038542;28;20641;-69
2020/12/06 17:22:55;;;;;;;988.43;891.20;;;;;;;;;;5032124;28;20740;-68
2020/12/06 17:25:22;;;;;;;857.70;785.33;;;;;;;;;;5028010;28;20565;-68
2020/12/06 17:27:48;;;;;;;933.73;856.43;;;;;;;;;;5037850;28;20620;-68
2020/12/06 17:30:15;;;;;;;925.77;847.67;;;;;;;;;;5031099;28;20193;-68
2020/12/06 17:32:42;;;;;;;963.93;883.37;;;;;;;;;;5039665;28;20179;-68
2020/12/06 17:35:08;;;;;;;932.87;855.00;;;;;;;;;;5040244;28;20454;-68
2020/12/06 17:37:35;;;;;;;828.23;764.17;;;;;;;;;;5038282;28;20264;-68
2020/12/06 17:40:01;;;;;;;895.43;820.93;;;;;;;;;;5035713;28;20180;-68
2020/12/06 17:42:28;;;;;;;817.60;748.87;;;;;;;;;;5036855;28;20336;-68
2020/12/06 17:44:55;;;;;;;874.50;804.00;;;;;;;;;;5036387;28;20204;-68
2020/12/06 17:47:22;;;;;;;806.13;737.87;;;;;;;;;;5038412;28;20186;-68
2020/12/06 17:49:48;;;;;;;804.17;731.63;;;;;;;;;;5043043;28;20168;-68
2020/12/06 17:52:16;;;;;;;914.40;826.63;;;;;;;;;;5037267;28;20250;-68
2020/12/06 17:54:43;;;;;;;727.80;668.17;;;;;;;;;;5038190;28;20206;-68
2020/12/06 17:57:09;;;;;;;738.60;679.53;;;;;;;;;;5045506;28;20590;-67
2020/12/06 17:59:36;;;;;;;845.43;773.60;;;;;;;;;;5037075;28;20178;-68
2020/12/06 18:02:03;;;;;;;772.40;703.47;;;;;;;;;;5038935;28;20789;-67
2020/12/06 18:04:29;;;;;;;754.30;684.17;;;;;;;;;;5039703;28;20265;-68
2020/12/06 18:07:01;;;;;;;825.37;753.27;;;;;;;;;;5038176;28;20197;-68
2020/12/06 18:09:28;;;;;;;857.07;777.50;;;;;;;;;;5038784;28;20205;-68
2020/12/06 18:11:55;;;;;;;748.80;682.43;;;;;;;;;;5037567;28;20174;-68
2020/12/06 18:14:23;;;;;;;876.53;798.93;;;;;;;;;;5038398;28;20210;-68
2020/12/06 18:16:49;;;;;;;860.40;786.77;;;;;;;;;;5037771;28;20247;-68
2020/12/06 18:19:16;;;;;;;1002.63;904.40;;;;;;;;;;5043788;28;20784;-67
2020/12/06 18:21:44;;;;;;;951.63;862.90;;;;;;;;;;5040906;28;20300;-68
2020/12/06 18:24:11;;;;;;;970.90;882.77;;;;;;;;;;5039133;28;20507;-68
2020/12/06 18:26:38;;;;;;;1016.80;923.00;;;;;;;;;;5037809;28;20178;-68
2020/12/06 18:29:06;;;;;;;1036.87;936.10;;;;;;;;;;5039212;28;20175;-68
2020/12/06 18:31:33;;;;;;;1077.60;978.20;;;;;;;;;;5037193;28;20176;-68
2020/12/06 18:34:00;;;;;;;1029.07;935.77;;;;;;;;;;5039133;28;20541;-68
2020/12/06 18:36:27;;;;;;;973.80;894.30;;;;;;;;;;5037571;28;20238;-68
2020/12/06 18:38:55;;;;;;;1003.20;917.67;;;;;;;;;;5037881;28;20185;-68
2020/12/06 18:41:21;;;;;;;994.03;912.10;;;;;;;;;;5034052;28;20206;-68
2020/12/06 18:43:49;;;;;;;1002.37;919.07;;;;;;;;;;5036573;28;20186;-68
2020/12/06 18:46:16;;;;;;;991.43;907.10;;;;;;;;;;5040282;28;20191;-67
2020/12/06 18:48:43;;;;;;;1031.23;940.30;;;;;;;;;;5038093;28;20179;-68
2020/12/06 18:51:13;;;;;;;972.37;881.30;;;;;;;;;;5037148;28;20187;-68
2020/12/06 18:53:39;;;;;;;1016.33;929.30;;;;;;;;;;5037294;28;20183;-68
2020/12/06 18:56:07;;;;;;;1027.83;941.70;;;;;;;;;;5040030;28;20219;-68
2020/12/06 18:58:34;;;;;;;991.37;901.93;;;;;;;;;;5038035;28;20590;-67
2020/12/06 19:01:00;;;;;;;881.27;810.67;;;;;;;;;;5033631;28;20406;-67
2020/12/06 19:03:27;;;;;;;848.60;782.87;;;;;;;;;;5037660;28;20278;-67
2020/12/06 19:05:54;;;;;;;867.87;803.30;;;;;;;;;;5035724;28;20567;-67
2020/12/06 19:08:21;;;;;;;875.83;815.03;;;;;;;;;;5035744;28;20193;-67
2020/12/06 19:10:47;;;;;;;842.23;784.77;;;;;;;;;;5039427;28;21174;-68
2020/12/06 19:13:14;;;;;;;899.67;829.70;;;;;;;;;;5031804;28;20327;-68
2020/12/06 19:15:40;;;;;;;965.00;884.60;;;;;;;;;;5036807;28;20184;-68
2020/12/06 19:18:07;;;;;;;979.63;895.63;;;;;;;;;;5036868;28;20172;-71
2020/12/06 19:20:34;;;;;;;925.27;852.47;;;;;;;;;;5029068;28;20553;-69
2020/12/06 19:23:00;;;;;;;917.90;847.37;;;;;;;;;;5038471;28;20199;-68
2020/12/06 19:25:27;;;;;;;932.20;864.63;;;;;;;;;;5036351;28;20849;-69
2020/12/06 19:27:54;;;;;;;983.03;894.77;;;;;;;;;;5038047;28;20610;-69
2020/12/06 19:30:21;;;;;;;890.77;822.67;;;;;;;;;;5036907;28;20201;-69
2020/12/06 19:32:47;;;;;;;915.73;842.70;;;;;;;;;;5037011;28;20166;-69
2020/12/06 19:35:14;;;;;;;902.07;831.60;;;;;;;;;;5037498;28;20294;-70
2020/12/06 19:37:42;;;;;;;931.87;859.63;;;;;;;;;;5036954;28;20638;-68
2020/12/06 19:40:10;;;;;;;968.00;892.87;;;;;;;;;;5037257;28;20198;-69
2020/12/06 19:42:37;;;;;;;880.90;814.27;;;;;;;;;;5037337;28;20191;-68
2020/12/06 19:45:05;;;;;;;906.23;835.87;;;;;;;;;;5038798;28;20217;-69
2020/12/06 19:47:32;;;;;;;943.00;867.63;;;;;;;;;;5039687;28;20179;-69
2020/12/06 19:49:58;;;;;;;984.50;900.97;;;;;;;;;;5041268;28;20171;-71
2020/12/06 19:52:25;;;;;;;1070.27;965.73;;;;;;;;;;5043224;28;20189;-70
2020/12/06 19:54:52;;;;;;;1114.33;999.90;;;;;;;;;;5043649;28;20184;-69
2020/12/06 19:57:19;;;;;;;989.47;912.27;;;;;;;;;;5037586;28;20226;-68
2020/12/06 19:59:46;;;;;;;993.73;911.30;;;;;;;;;;5036256;28;20191;-69
2020/12/06 20:02:18;;;;;;;986.77;903.53;;;;;;;;;;5037843;28;20312;-69
2020/12/06 20:04:47;;;;;;;1015.70;926.53;;;;;;;;;;5037313;28;20601;-68
2020/12/06 20:07:16;;;;;;;1031.40;938.87;;;;;;;;;;5038885;28;20178;-68
2020/12/06 20:09:43;;;;;;;1053.53;958.47;;;;;;;;;;5040053;28;20191;-68
2020/12/06 20:12:09;;;;;;;1031.70;935.53;;;;;;;;;;5045730;28;20190;-69
2020/12/06 20:14:37;;;;;;;1007.30;911.37;;;;;;;;;;5035718;28;20210;-67
2020/12/06 20:17:04;;;;;;;1042.30;943.03;;;;;;;;;;5037080;28;20221;-67
2020/12/06 20:19:33;;;;;;;1054.03;944.20;;;;;;;;;;5035309;28;20236;-76
2020/12/06 20:22:02;;;;;;;1026.63;928.83;;;;;;;;;;5036976;28;20721;-69
2020/12/06 20:24:29;;;;;;;929.27;839.67;;;;;;;;;;5040629;28;20271;-73
2020/12/06 20:26:56;;;;;;;962.67;867.67;;;;;;;;;;5045568;28;20174;-72
2020/12/06 20:29:26;;;;;;;947.40;853.27;;;;;;;;;;5038152;28;20172;-71
2020/12/06 20:31:53;;;;;;;916.57;828.77;;;;;;;;;;5040219;28;20186;-69
2020/12/06 20:34:20;;;;;;;897.83;813.43;;;;;;;;;;5039084;28;20186;-66
2020/12/06 20:36:49;;;;;;;934.17;845.30;;;;;;;;;;5035225;28;20327;-66
2020/12/06 20:39:16;;;;;;;875.10;793.77;;;;;;;;;;5045013;28;20645;-67
2020/12/06 20:41:47;;;;;;;865.70;784.63;;;;;;;;;;5042050;28;20185;-67
2020/12/06 20:44:13;;;;;;;861.90;782.53;;;;;;;;;;5041669;28;20204;-66
2020/12/06 20:46:40;;;;;;;800.07;732.20;;;;;;;;;;5037604;28;20959;-65
2020/12/06 20:49:07;;;;;;;843.50;765.67;;;;;;;;;;5035508;28;20649;-66
2020/12/06 20:51:34;;;;;;;881.87;801.10;;;;;;;;;;5035942;28;20304;-66
2020/12/06 20:54:01;;;;;;;795.40;722.87;;;;;;;;;;5034811;28;21024;-67
2020/12/06 20:56:28;;;;;;;801.43;728.13;;;;;;;;;;5037922;28;20218;-67
2020/12/06 20:58:56;;;;;;;824.33;748.50;;;;;;;;;;5033553;28;20273;-68
2020/12/06 21:01:22;;;;;;;801.60;724.07;;;;;;;;;;5033874;28;20178;-68
2020/12/06 21:03:49;;;;;;;846.70;769.17;;;;;;;;;;5034165;28;20297;-69
2020/12/06 21:06:20;;;;;;;865.77;776.97;;;;;;;;;;5024205;28;20194;-67
2020/12/06 21:08:50;;;;;;;704.30;641.20;;;;;;;;;;5032611;28;20291;-67
2020/12/06 21:11:23;;;;;;;661.03;604.13;;;;;;;;;;5039137;28;20194;-69
2020/12/06 21:13:49;;;;;;;536.60;493.53;;;;;;;;;;5036021;28;20588;-68
2020/12/06 21:16:17;;;;;;;614.30;562.30;;;;;;;;;;5034679;28;20509;-68
2020/12/06 21:18:45;;;;;;;646.37;592.87;;;;;;;;;;5031705;28;20190;-68
2020/12/06 21:21:12;;;;;;;803.20;726.07;;;;;;;;;;5028571;28;20190;-68
2020/12/06 21:23:40;;;;;;;815.10;737.90;;;;;;;;;;5033763;28;21000;-68
2020/12/06 21:26:10;;;;;;;721.73;653.90;;;;;;;;;;5033603;28;20850;-69
2020/12/06 21:28:37;;;;;;;530.60;491.70;;;;;;;;;;5036727;28;20185;-67
2020/12/06 21:31:08;;;;;;;843.03;764.17;;;;;;;;;;5034313;28;20648;-65
2020/12/06 21:33:35;;;;;;;603.47;556.30;;;;;;;;;;5036042;28;20193;-68
2020/12/06 21:36:02;;;;;;;741.40;675.10;;;;;;;;;;5033076;28;20240;-69
2020/12/06 21:38:29;;;;;;;836.47;759.10;;;;;;;;;;5035629;28;20609;-67
2020/12/06 21:41:00;;;;;;;834.47;756.87;;;;;;;;;;5038025;28;20193;-68
